Måndag 2022-01-24 02:20:19 vecka 4, namnsdag Erika, imorgon Paul, Pål  [Huvudmeny]   minomax.se   minomax.se/synop   minomax.se/flyg   wwwinfo.se   medd.nu  -  meddelanden   kakor SYNOP-data Visa SYNOP-temperaturer och data
Land: skriv landsbeteckning, 2 bokstäver, tex. se för Sverige. Sök land Sökord: skriv sökord, eller lämna tomt så visas alla Visar SYNOP för SE- Sverige Land/ IATA Id Mätplats Temp Tid Datum region ICAO SYNOP... WMO-nr ----- ------------------------- ----- ----- ---------- ------ --- ---- -----------------... 02013 Ritsem|Akkastugan 1,4 01:00 2022-01-24 SE-BD AAXX 24001 02013 27/57 /2207 10014 20003 39272 49916 56034 76786 333 60025 90710 91115= 02019 Katterjakk|Lapplandia/Air 3,4 01:00 2022-01-24 SE-BD AAXX 24001 02019 47/58 /2209 10034 20006 39251 49858 56034 76286 333 90710 91118= 02022 Abisko/Automated 3,2 01:00 2022-01-24 SE-BD AAXX 24001 02022 27541 92413 10032 20012 39395 49862 56023 76286 333 69985 89/26 90710 91122= 02024 Stora Sjoefallet|Vietas 4,8 01:00 2022-01-24 SE-BD AAXX 24001 02024 47/65 /2809 10048 20003 78186 333 90710 91119= 02029 Tarfala -0,3 01:00 2022-01-24 SE-BD AAXX 24001 02029 46/// /1611 11003 21012 38576 57043 333 90710 91123=
02031 Rensjoen|Rautas 4,7 01:00 2022-01-24 SE-BD AAXX 24001 02031 25/84 /2310 10047 21003 333 60005 90710 91116= 02036 Nikkaluokta/Automated 4,3 01:00 2022-01-24 SE-BD AAXX 24001 02036 27559 92509 10043 21002 39335 49886 56027 76186 333 69945 89/30 90710 91115= 02038 Latnivaara|Ladnivare 5,4 01:00 2022-01-24 SE-BD AAXX 24001 02038 25/84 /2208 10054 21011 333 60005 90710 91116= 02044 Kiruna|Tuolluvaara/Airpor 4,5 01:00 2022-01-24 SE-BD KRN ESNQ AAXX 24001 02044 45/84 /2012 10045 21003 39345 49886 58045= 02045 Kiruna|Tuolluvaara/Geofys /// 00:00 2022-01-24 SE-BD AAXX 2323/ 02045 333 55300 40936=
02049 Gallivare|Malmberget/Priv 5,7 01:00 2022-01-24 SE-BD GEV ESNG AAXX 24001 02049 25/84 /2308 10057 21011 39507 49934 58024 333 60005 90710 91116= 02055 Naimakka|Siikavuopio 5,4 01:00 2022-01-24 SE-LL AAXX 24001 02055 25684 52112 10054 21007 333 60005 85/49 90710 91118= 02064 Saittarova 5,9 01:00 2022-01-24 SE-BD AAXX 24001 02064 25/84 /1907 10059 21011 333 60005 90710 91113= 02072 Porkalompolo|Parkalompolo 4,3 01:00 2022-01-24 SE-BD AAXX 24001 02072 25984 01907 10043 20003 39541 49915 58034 333 60005 90710 91112= 02081 Karesuando/Airport /// 01:00 2022-01-24 SE-BD AAXX 24001 02081 25/63 /1804 21007 39476 49871 58046 333 60005 90710 91113=
02095 Pajala|Kungsstrand /// 01:00 2022-01-24 SE-BD AAXX 24001 02095 25984 02006 20002 39751 49950 58030 333 60005 90710 91112= 02101 Palkem|Björkfors 4,4 01:00 2022-01-24 SE-AC AAXX 24001 02101 47572 /3003 10044 20014 39462 40009 58042 722// 333 84/23 85/34= 02102 Stekenjokk|Stikkenjokk -0,7 01:00 2022-01-24 SE-AC AAXX 24001 02102 46/// ///// 11007 21008 333 90710 91136= 02103 Hemavan-Skorvfjalle|Portb 1,7 01:00 2022-01-24 SE-AC AAXX 24001 02103 46/// /2524 10017 21001 333 90710 91132= 02110 Gielas|Svallgonäs 3,7 01:00 2022-01-24 SE-AC AAXX 24001 02110 25/84 /2407 10037 21006 333 60005 90710 91119=
02119 Kvikkjokk Arrenjarka A|Nj 5,7 01:00 2022-01-24 SE-BD AAXX 24001 02119 27683 82505 10057 21004 39575 49952 56038 78182 333 69905 88/40 90710 91113= 02121 Mierkenis|Vuoggatjålme 2,9 01:00 2022-01-24 SE-BD AAXX 24001 02121 27/39 /2707 10029 20002 39244 49972 58034 76186 333 69965 90710 91118= 02124 Arjeplog|Sakkavare 5,2 01:00 2022-01-24 SE-BD AAXX 24001 02124 25684 82205 10052 21010 39482 49996 58027 333 60005 88/38 90710 91111= 02126 Gunnarn|Bastuträsk/Airpor 5,6 01:00 2022-01-24 SE-AC ESPD AAXX 24001 02126 25984 02207 10056 20003 39719 40053 58031 333 60005 90710 91111= 02135 Buresjoen 4,5 01:00 2022-01-24 SE-AC AAXX 24001 02135 25684 62209 10045 21003 333 60005 86/42 90710 91115=
02141 Tjakaape|Nausta 3,4 01:00 2022-01-24 SE-BD AAXX 24001 02141 05984 02407 10034 20000 39296 49984 56030 60001 333 60005 91013 90710 91117= 02147 Malaa-Braennan|Släppträsk 4,5 01:00 2022-01-24 SE-AC AAXX 24001 02147 25/84 /2207 10045 20002 333 60005 90710 91114= 02149 Arvidsjaur|Fjällbonäs 4,6 01:00 2022-01-24 SE-BD AAXX 24001 02149 25984 02104 10046 21009 39566 40026 58024 333 60005 90710 91113= 02151 Jokkmokk|Koskats/Jokkmokk 6,2 01:00 2022-01-24 SE-BD AAXX 24001 02151 05984 02307 10062 21005 39643 49972 58031 60001 333 60005 91012 90710 91113= 02154 Vidsel|Nästräsk/AFB 6,4 01:00 2022-01-24 SE-BD ESPE AAXX 24001 02154 05984 02406 10064 20004 39792 40012 56023 60001 333 60005 91011 90710 91115=
02161 Nattavaara 4,8 01:00 2022-01-24 SE-BD AAXX 24001 02161 25984 02004 10048 21016 333 60005 90710 91111= 02171 Boden|Avaheden/Army Air B 6,9 01:00 2022-01-24 SE-BD ESPG AAXX 24001 02171 05984 02305 10069 20006 39982 40013 58027 60001 333 60005 91009 90710 91111= 02173 Aelvsbyn|Högheden 7,0 01:00 2022-01-24 SE-BD AAXX 24001 02173 25984 02406 10070 21002 333 60005 90710 91115= 02174 Lakatraesk|Lakaträsk 5,8 01:00 2022-01-24 SE-BD AAXX 24001 02174 25984 02204 10058 21020 39764 49988 58025 333 60005 90710 91110= 02176 Ronnskar|Jävrebodarna/Aut 2,7 01:00 2022-01-24 SE- AAXX 24001 02176 25984 02211 10027 21001 333 60005 90710 91114=
02181 Svartbyn|Mjölan/Automated 2,9 01:00 2022-01-24 SE-BD AAXX 24001 02181 25984 01805 10029 20002 39925 40001 58026 333 60005 90710 91109= 02183 Lulea Sol|Kallax /// 00:00 2022-01-24 SE-BD AAXX 2323/ 02183 333 55300 20003= 02184 Paharova 4,9 01:00 2022-01-24 SE-BD AAXX 24001 02184 25/84 /2204 10049 21001 39692 49967 58030 333 60005 90710 91111= 02186 Kallax|Svartöstaden/Lulea 4,7 01:00 2022-01-24 SE-BD LLA ESPA AAXX 24001 02186 05983 01906 10047 20008 30007 40032 58024 60001 333 60005 91008 90710 91109= 02188 Rodkallen|Storbrändön/Aut 2,1 01:00 2022-01-24 SE- AAXX 24001 02188 25983 01913 10021 20010 333 60005 90710 91117=
02191 Storoen|Storön 3,0 01:00 2022-01-24 SE- AAXX 24001 02191 25982 02011 10030 20004 333 60005 90710 91116= 02197 Haparanda|Sundholmen/Hapa 2,7 01:00 2022-01-24 SE-BD AAXX 24001 02197 25984 02105 10027 20005 30017 40036 58019 333 60005 90710 91112= 02199 Ylinenjaervi|Ylinenjärvi 4,8 01:00 2022-01-24 SE-BD AAXX 24001 02199 25984 01907 10048 20002 333 60005 90710 91113= 02205 Storlien Sol /// (10:00 2022-01-17) SE-Z AAXX 1709/ 02205 NIL= 02207 Storlien-Visjovalen|Visjö 2,6 01:00 2022-01-24 SE-Z AAXX 24001 02207 25984 72103 10026 21031 39413 40117 56013 333 60005 81/69 87/72 90710 91106=
02209 Sylarna|Tjallingen/Automa 3,1 01:00 2022-01-24 SE-Z AAXX 24001 02209 46/// /2411 10031 21056 333 90710 91121= 02210 Blahammaren A|Blåhammaren -1,4 01:00 2022-01-24 SE-Z AAXX 24001 02210 46/// /2110 11014 21016 333 90710 91115= 02214 Trillevallen|Sefrivatn /// (23:00 2021-08-02) SE-18 AAXX 0221/ 02214 64387A 32560 10229 20102 38549 48543 8523/333 59003 85825= 02219 Gaddede A|Gussvattnet 2,8 01:00 2022-01-24 SE-Z AAXX 24001 02219 27/84 /2706 10028 20005 39414 40081 58027 72386 333 69905 90710 91120= 02221 Korsvattnet|Mjölkvattnet 1,4 01:00 2022-01-24 SE-Z AAXX 24001 02221 25/84 /0201 10014 21005 333 60005 90710 91103=
02226 Ostersund-Åre Airport 2,5 01:00 2022-01-24 SE-Z OSD ESNZ AAXX 24001 02226 45/84 /1905 10025 21020 39655 40113 56021= 02229 Östersund Sol|Västerhus /// 00:00 2022-01-24 SE-Z AAXX 2323/ 02229 333 55300= 02230 Gubbhögen/Högbynäs 2,1 01:00 2022-01-24 SE-Z AAXX 24001 02230 25/84 /1803 10021 21012 333 60005 90710 91105= 02231 Föllinge 0,1 01:00 2022-01-24 SE-Z AAXX 24001 02231 25984 03202 10001 21028 333 60005 90710 91104= 02236 Hallhåxåsen -1,5 01:00 2022-01-24 SE-Z AAXX 24001 02236 25984 02601 11015 21030 39649 40112 56018 333 60005 90710 91104=
02242 Hoting|Andersnäset 0,9 01:00 2022-01-24 SE-Z AAXX 24001 02242 25/84 /1202 10009 21028 333 60005 90710 91104= 02243 Krångede|Bölen -3,2 01:00 2022-01-24 SE-Y AAXX 24001 02243 27/84 /1101 11032 21051 39840 40115 58022 72032 333 60005 90710 91102= 02245 Vilhelmina|Dalasjö/Automa 3,8 01:00 2022-01-24 SE-AC AAXX 24001 02245 27/84 /2205 10038 21002 39659 40082 56021 7818/ 333 69905 90710 91110= 02247 Krangede|Döviken/Automate -8,5 01:00 2022-01-24 SE-Z AAXX 24001 02247 27002 90000 11085 21107 39895 40127 58020 77187 333 69905 89/01 90710 91102= 02254 Åsele/Söråsele -2,4 01:00 2022-01-24 SE-AC AAXX 24001 02254 25980 00000 11024 21030 39722 40103 58020 333 60005 90710 91103=
02260 Västmarkum|Östmarkum -6,5 01:00 2022-01-24 SE-Y AAXX 24001 02260 27/84 /3201 11065 21068 39939 40119 58024 7//32 333 60005 90710 91102= 02261 Lycksele|Hälsingfors 5,6 01:00 2022-01-24 SE-AC AAXX 24001 02261 25/84 /1902 10056 21005 39821 40077 58023 333 60005 90710 91106= 02263 Fredrika|Fristad 1,1 01:00 2022-01-24 SE-AC AAXX 24001 02263 25984 01802 10011 21011 333 60005 90710 91105= 02265 Hemling -4,2 01:00 2022-01-24 SE-Y AAXX 24001 02265 27981 00201 11042 39886 40115 58022 72032 333 60005 90710 91103= 02267 Örnskoldsvik/Airport -2,7 01:00 2022-01-24 SE-Y OER ESNO AAXX 24001 02267 45/81 /2602 11027 21027 39977 40112 58023=
02269 Skagsudde|Skeppsmalen/Aut 1,1 01:00 2022-01-24 SE-Y AAXX 24001 02269 25983 02502 10011 21011 333 60005 90710 91104= 02271 Norsjö|Finnäs 4,3 01:00 2022-01-24 SE-AC AAXX 24001 02271 25/84 /2004 10043 21004 39683 40058 58026 333 60005 90710 91108= 02282 Petisträsk 4,2 01:00 2022-01-24 SE-AC AAXX 24001 02282 25984 02402 10042 21002 333 60005 90710 91105= 02283 Umeå Robacksdalen|Teg /// 00:00 2022-01-24 SE-AC AAXX 2323/ 02283 333 55300 20002 40910= 02284 Järnäsklubb 1,3 01:00 2022-01-24 SE-AC AAXX 24001 02284 25982 02005 10013 20007 30101 40110 58023 333 60005 90710 91106=
02286 Umeå/Airport -0,3 01:00 2022-01-24 SE-AC UME ESNU AAXX 24001 02286 45/84 /1602 11003 21011 30100 40109 58018= 02287 Holmön 1,1 01:00 2022-01-24 SE- AAXX 24001 02287 25980 02005 10011 20003 30103 40113 58015 333 60005 90710 91111= 02293 Skellefteå/Airport 2,9 01:00 2022-01-24 SE-AC SFT ESNS AAXX 24001 02293 45/84 /2007 10029 20000 30020 40079 58016= 02297 Bjuröklubb 4,1 01:00 2022-01-24 SE- AAXX 24001 02297 25984 02210 10041 20001 30039 40085 57017 333 60005 90710 91115= 02307 Idre|Idre Fjäll/Automated -0,5 01:00 2022-01-24 SE-W AAXX 24001 02307 46/// /2307 11005 21036 333 90710 91111=
02308 Tannas|Tännäs/Automated -2,8 01:00 2022-01-24 SE-Z AAXX 24001 02308 25984 02101 11028 21066 39273 40150 58017 333 60005 90710 91103= 02316 Särna -16,5 01:00 2022-01-24 SE-W AAXX 24001 02316 46/// ///// 11165= 02317 Dravagen -4,6 01:00 2022-01-24 SE-Z AAXX 24001 02317 25984 03002 11046 21067 333 60005 90710 91105= 02319 Börtnan -4,5 01:00 2022-01-24 SE-Z AAXX 24001 02319 25/84 /0601 11045 21063 333 60005 90710 91102= 02321 Älvdalen|Rot -13,2 01:00 2022-01-24 SE-W AAXX 24001 02321 25984 02101 11132 21148 39865 40189 58013 333 60005 90710 91101=
02325 Klövsjöhöjden|Sångbäcken 0,4 01:00 2022-01-24 SE-Z AAXX 24001 02325 25/84 /2306 10004 21031 39173 40134 58017 333 60005 90710 91111= 02327 Sveg|Sundsätt/Sveg A -1,5 01:00 2022-01-24 SE-Z AAXX 24001 02327 25/84 /2903 11015 21049 39712 40156 56011 333 60005 90710 91105= 02329 Hamra 0,0 01:00 2022-01-24 SE-X AAXX 24001 02329 25/84 /2102 10000 21025 39595 40153 57019 333 60005 90710 91105= 02331 Hunge -6,5 01:00 2022-01-24 SE-Z AAXX 24001 02331 269// 03201 11065 21071 333 60005 90710 91103= 02338 Edsbyn|Gammelhomna/Automa -0,5 01:00 2022-01-24 SE-X AAXX 24001 02338 25984 02603 11005 21025 39929 40160 58018 333 60005 90710 91104=
02343 Torpshammar|Rombäck -10,2 01:00 2022-01-24 SE-Y AAXX 24001 02343 25984 00000 11102 21134 30011 40139 58023 333 60005 90710 91101= 02347 Delsbo|Åkre -7,0 01:00 2022-01-24 SE-X AAXX 24001 02347 25984 03401 11070 21090 30053 40144 58023 333 60005 90710 91102= 02355 Kuggören|Bålsön/Automated 3,5 01:00 2022-01-24 SE- AAXX 24001 02355 25984 02306 10035 21016 30124 40137 58020 333 60005 90710 91109= 02366 Sundsvall|Midlanda/Härnös -9,0 01:00 2022-01-24 SE-Y SDL ESNN AAXX 24001 02366 45/84 /3401 11090 21101 30124 40131 58021= 02368 Brämön/Sanna/Automated 1,0 01:00 2022-01-24 SE- AAXX 24001 02368 25984 02201 10010 21024 333 60005 90710 91106=
02382 Lungö|Uddhamn/Automated 0,3 01:00 2022-01-24 SE- AAXX 24001 02382 25/80 /2503 10003 21017 333 60005 90710 91106= 02403 Naven|Skaven 3,7 01:00 2022-01-24 SE- AAXX 24001 02403 27469 82509 10037 20034 333 60005 88/11 90710 91114= 02407 Malung A|Grimsmyrheden -8,0 01:00 2022-01-24 SE-W AAXX 24001 02407 25984 01601 11080 21104 39816 40201 56011 333 60005 90710 91102= 02408 Blomskog|Vammerviken/Auto 4,5 01:00 2022-01-24 SE- AAXX 24001 02408 27371 82503 10045 20043 30013 40225 55005 7//32 333 60005 88/07 90710 91109= 02411 Arvika|Långvak -4,4 01:00 2022-01-24 SE-S AAXX 24001 02411 27384 80000 11044 21050 30131 40216 58014 7//32 333 60005 88/08 90710 91101=
02417 Pålgrunden|Tallbacken /// 01:00 2022-01-24 SE-S AAXX 24001 02417 46/// /2114 333 90710 91118= 02418 Karlstad/Airport 0,1 01:00 2022-01-24 SE-S KSD ESSQ AAXX 24001 02418 47264 /2002 10001 20001 30088 40222 56010 720// 333 88/04= 02419 Sookojan|Nolgård /// 00:00 2022-01-24 SE-S AAXX 2323/ 02419 333 55300 20002= 02423 Sunne|Ulvsby -1,5 01:00 2022-01-24 SE-S AAXX 24001 02423 27180 81902 11015 21017 7//32 333 60005 85/02 88/13 90710 91105= 02426 Gustavsfors -2,2 01:00 2022-01-24 SE-S AAXX 24001 02426 27106 92101 11022 21026 39973 40210 57013 73432 333 60005 89/01 90710 91102=
02429 Daglösen|Gränäset 0,9 01:00 2022-01-24 SE-US AAXX 24001 02429 27116 81802 10009 20007 71032 333 60005 88/02 90710 91104= 02431 Kloten 0,0 01:00 2022-01-24 SE-T AAXX 24001 02431 27163 82302 10000 21001 39857 40211 58007 7//32 333 60005 88/02 90710 91107= 02432 Orebro|Tredingskullen/Aut 4,1 01:00 2022-01-24 SE-T AAXX 24001 02432 45265 /2303 10041 20029 30154 40226 56005 333 88/05= 02435 Borlänge|Romme/AFB 1,5 01:00 2022-01-24 SE-W BLE ESSD AAXX 24001 02435 45/84 /1904 10015 21015 39993 40185 58011= 02437 Aspa /// 00:00 2022-01-24 SE-U ESQO AAXX 2323/ 02437 333 55300 20001=
02440 Åmot -6,4 01:00 2022-01-24 SE-X AAXX 24001 02440 25984 02701 11064 21071 333 60005 90710 91102= 02441 Mora|Vinäs 0,0 01:00 2022-01-24 SE-W AAXX 24001 02441 25984 02402 10000 21027 39932 40178 56012 333 60005 90710 91107= 02443 Enköping/Åkerby 1,2 01:00 2022-01-24 SE-C AAXX 24001 02443 07114 82303 10012 20012 30184 40215 58008 60001 71031 333 60005 88/02 91007 90710 91107= 02449 Eskilstuna|Flacksta/AB 2,4 01:00 2022-01-24 SE-D EKT ESSU AAXX 24001 02449 27259 82405 10024 20011 30205 40221 56008 71011 333 60005 88/05 90710 91108= 02450 Eggegrund|Långsand 0,3 01:00 2022-01-24 SE- AAXX 24001 02450 46/// /2207 10003 21013 333 90710 91109=
02452 Kilsbergen-Suttarboda|Sve 1,9 01:00 2022-01-24 SE-T AAXX 24001 02452 27104 92404 10019 20017 73432 333 60005 89/02 90710 91107= 02453 Gävle|Varva/Automated 0,0 01:00 2022-01-24 SE-X AAXX 24001 02453 25984 02103 10000 21023 333 60005 90710 91108= 02456 Films Kyrkby|Kyrkbyn 0,5 01:00 2022-01-24 SE-C AAXX 24001 02456 25276 82203 10005 21001 30152 40196 58005 333 60005 88/04 90710 91107= 02458 Uppsala|Ärna/AFB 0,9 01:00 2022-01-24 SE-C ESCM AAXX 24001 02458 07256 92304 10009 20009 30184 40210 56006 60001 71011 333 60005 91006 90710 91107= 02460 Stockholm|Kimsta/Arlanda -0,2 01:00 2022-01-24 SE-AB ARN ESSA AAXX 24001 02460 47128 /2204 11002 21001 30160 40213 55004 710// 333 88/02=
02462 Uppsala Universitet|Almtu 6,1 (15:00 2019-11-20) SE-C AAXX 20141 02462 26/// /1701 10061 20060 30240 40279 333 60005= 02464 Stockholm/Bromma 0,7 01:00 2022-01-24 SE-AB BMA ESSB AAXX 24001 02464 47150 /2403 10007 20005 30205 40223 57004 710// 333 88/02= 02468 Stora Spånsberget|Spånsfä -1,4 01:00 2022-01-24 SE-W AAXX 24001 02468 25/84 /1602 11014 21038 333 60005 90710 91107= 02469 Tullinge|Eklundshov 0,6 01:00 2022-01-24 SE-AB AAXX 24001 02469 27/15 /2404 10006 20004 7101/ 333 60005 90710 91106= 02476 Floda|Stav/Automated 2,4 01:00 2022-01-24 SE-D AAXX 24001 02476 27278 82604 10024 20002 30186 40227 57008 333 60005 88/06 90710 91107=
02481 Sala|Isätra 1,3 01:00 2022-01-24 SE-U AAXX 24001 02481 27271 82103 10013 20010 30133 40206 58009 333 60005 88/04 90710 91105= 02482 Kerstinbo|Sälja 0,1 01:00 2022-01-24 SE-X AAXX 24001 02482 25384 12503 10001 21005 30121 40193 58010 333 60005 81/07 90710 91108= 02483 Stockholm Kth|Stocksund/A /// 00:00 2022-01-24 SE-AB AAXX 2323/ 02483 333 55300 20006= 02484 Stockholm|Stocksund/Obser 0,5 01:00 2022-01-24 SE-AB AAXX 24001 02484 46/// ///// 10005 20003 30166 40223 57003= 02485 Stockholm|Stocksund/Autom 0,3 (07:00 2019-10-30) SE-AB AAXX 30061 02485 12/70 82701 10003 21030 30205 40271 60002 333 10037 20007=
02486 Adelsö/Hovgården 1,0 01:00 2022-01-24 SE- AAXX 24001 02486 27/43 /2503 10010 20007 7101/ 333 60005 90710 91107= 02487 Stavsnäs|Eriksberg/Automa -0,2 01:00 2022-01-24 SE- AAXX 24001 02487 46/// /2503 11002 21004 333 90710 91108= 02488 Örskar|Askskär/Automated 0,4 01:00 2022-01-24 SE- AAXX 24001 02488 25984 02212 10004 21008 30172 40184 58006 333 60005 90710 91114= 02489 Hårsfjarden|Berga 0,8 01:00 2022-01-24 SE- AAXX 24001 02489 07150 82503 10008 20008 30222 40228 57005 60001 7101/ 333 60005 88/02 91004 90710 91105= 02490 Svanberga 0,4 01:00 2022-01-24 SE-AB AAXX 24001 02490 27161 82503 10004 20000 30188 40209 57004 333 60005 88/02 90710 91106=
02493 Söderarm|Österäng 0,6 01:00 2022-01-24 SE- AAXX 24001 02493 47282 92407 10006 20002 333 89/03 90710 91110= 02496 Svenska Högarna|Kudoxa/Li 9,8 (08:00 2021-06-01) SE- AAXX 01060 02496 02984 00507 10098 333 10100 20081 31/// 70000= 02498 Svenska Högarna A|Kudoxa 0,2 01:00 2022-01-24 SE- AAXX 24001 02498 27157 92308 10002 20001 30196 40214 57003 71083 333 60005 89/02 90710 91111= 02500 Nordkoster|Nord-Koster 5,5 01:00 2022-01-24 SE- AAXX 24001 02500 27959 02308 10055 20043 30187 40230 58006 7101/ 333 60005 90710 91112= 02501 Vaderöarna|Sjöviken 6,1 01:00 2022-01-24 SE- AAXX 24001 02501 46/// /00// 10061 20039 30205 40234 58007=
02505 Måseskar|Käringön 6,4 01:00 2022-01-24 SE- AAXX 24001 02505 27457 82614 10064 20037 71032 333 60005 87/17 88/20 90710 91119= 02513 Göteborg|Torp/Automated 6,4 01:00 2022-01-24 SE- AAXX 24001 02513 26/// /2403 10064 20042 30275 40279 50000 333 60005 90710 91109= 02516 Vinga|Fotö/Lighthouse 6,2 01:00 2022-01-24 SE- AAXX 24001 02516 27465 82507 10062 20047 30255 40278 50000 333 60005 88/15 90710 91111= 02518 Nidingen|Vässingsö/Lighth 5,8 01:00 2022-01-24 SE- AAXX 24001 02518 469// 02609 10058 333 90710 91112= 02520 Såtenas|Såtenäs Villastad 5,0 01:00 2022-01-24 SE- AAXX 24001 02520 05489 82408 10050 20041 30180 40249 58001 60001 333 60005 88/11 91012 90710 91112=
02526 Göteborg/Landvetter 4,5 01:00 2022-01-24 SE- GOT ESGG AAXX 24001 02526 45262 /2506 10045 20037 30085 40277 50001 333 88/06= 02536 Rångedala|Vevelhult/Autom 3,5 01:00 2022-01-24 SE- AAXX 24001 02536 27123 82504 10035 20034 39901 40271 52003 72032 333 60005 85/02 88/04 90710 91111= 02539 Ullared|Spetsebo 4,7 01:00 2022-01-24 SE-N AAXX 24001 02539 47256 82802 10047 20046 71032 333 88/04 90710 91108= 02540 Kroppefjäll-Grånan|Årbol 4,3 01:00 2022-01-24 SE- AAXX 24001 02540 27379 82605 10043 20042 7//32 333 60005 88/07 90710 91112= 02542 Hallum|Hällum 5,2 01:00 2022-01-24 SE- AAXX 24001 02542 27369 82508 10052 20039 30163 40252 50000 333 60005 88/08 90710 91113=
02544 Karlsborg|Gräshult 4,6 01:00 2022-01-24 SE- AAXX 24001 02544 05384 82506 10046 20038 30123 40240 58006 60001 333 60005 88/07 91009 90710 91109= 02545 Axstal|Hanken 4,5 01:00 2022-01-24 SE- AAXX 24001 02545 05383 8//// 10045 20045 30130 40241 58004 60001 333 60005 88/07= 02546 Gardsjö|Korterud 3,3 01:00 2022-01-24 SE-T AAXX 24001 02546 27103 82503 10033 20032 39971 40235 56005 73332 333 60005 88/02 90710 91108= 02548 Visingsö|Ed 5,0 01:00 2022-01-24 SE-F AAXX 24001 02548 25/84 /2406 10050 20028 333 60005 90710 91109= 02549 Tomtabacken|Stora Åkerhul 3,0 01:00 2022-01-24 SE-F AAXX 24001 02549 27105 92503 10030 20019 73332 333 60005 89/02 90710 91108=
02550 Jönkoping/Airport 4,0 01:00 2022-01-24 SE-F JKG ESGJ AAXX 24001 02550 47258 /2506 10040 20040 39982 40262 54001 710// 333 88/05= 02552 Malexander|Mo 3,8 01:00 2022-01-24 SE-E AAXX 24001 02552 27383 82402 10038 20009 333 60005 88/08 90710 91106= 02554 Kettstaka|Hulta 3,1 01:00 2022-01-24 SE-E AAXX 24001 02554 27221 92705 10031 20024 72032 333 60005 89/04 90710 91110= 02556 Hagshult|Hemmershult/AFB 4,0 01:00 2022-01-24 SE-F ESMV AAXX 24001 02556 07129 82404 10040 30065 40277 53001 60001 71031 333 60005 88/03 91008 90710 91108= 02557 Horn|Äleby 2,9 01:00 2022-01-24 SE-E AAXX 24001 02557 25484 72103 10029 20007 30137 40251 57003 333 60005 87/13 90710 91104=
02558 Kolmarden-Strömsfors|Strö 2,5 01:00 2022-01-24 SE-E AAXX 24001 02558 27263 82604 10025 20023 30038 40232 57006 7//32 333 60005 86/05 88/06 90710 91107= 02559 Gladhammar|Ringsbo 3,3 01:00 2022-01-24 SE-H AAXX 24001 02559 25/84 /2302 10033 20018 333 60005 90710 91104= 02561 Kvarn|Prästtomta 3,9 01:00 2022-01-24 SE-E AAXX 24001 02561 05381 82502 10039 20027 30146 40236 56008 60001 333 60005 88/07 91006 90710 91106= 02562 Linköping|Jägarvallen/Mal 4,2 01:00 2022-01-24 SE-E AAXX 24001 02562 05383 82405 10042 20032 30125 40242 56006 60001 333 60005 88/09 91007 90710 91107= 02563 Harstena|Missjö 1,6 01:00 2022-01-24 SE- AAXX 24001 02563 25982 02203 10016 20011 30215 40237 57009 333 60005 90710 91105=
02565 Hultsfred|Målilla/AFB 5,1 01:00 2022-01-24 SE-H HLF ESSF AAXX 24001 02565 25470 82605 10051 20030 30140 40262 54000 333 60005 88/12 90710 91109= 02567 Landsort 2,1 01:00 2022-01-24 SE- AAXX 24001 02567 27145 82707 10021 20019 30206 40231 57007 7101/ 333 60005 88/02 90710 91110= 02570 Norrköping|Östra Eneby/Br /// (19:00 2020-02-28) SE-E AAXX 28181 02570 10804 10368 20196 30032 40097 60001 81100 333 56100 59005 60007 81827= 02574 Norrköping|Fiskeby 3,5 01:00 2022-01-24 SE-E AAXX 24001 02574 27380 82504 10035 20026 30183 40235 55006 333 60005 88/07 90710 91108= 02575 Ölandsnorraudde|Nabbelund 2,0 01:00 2022-01-24 SE- AAXX 24001 02575 25982 01703 10020 20010 30256 40260 58002 333 60005 90710 91105=
02587 Fårösund-Ar 1,6 01:00 2022-01-24 SE- AAXX 24001 02587 27281 92307 10016 20013 333 60005 89/05 90710 91110= 02589 Gotska Sandön|Lauters 2,3 01:00 2022-01-24 SE- AAXX 24001 02589 25284 82707 10023 20005 30217 40239 58003 333 60005 88/04 90710 91111= 02590 Visby/Airport 2,4 01:00 2022-01-24 SE-I VBY ESSV AAXX 24001 02590 07260 82505 10024 20019 30195 40258 58002 60001 710// 333 60005 88/04 91008 90710 91108= 02598 Östergarnsholm|Katthammar 1,4 01:00 2022-01-24 SE- AAXX 24001 02598 46/// /2305 10014 20013 333 90710 91108= 02604 Halmstad|Karlsro/AFB 4,8 01:00 2022-01-24 SE-N HAD ESMT AAXX 24001 02604 45366 /2805 10048 20047 30261 40300 55001 333 88/07=
02605 Hallands|Kalvskärslid/Vad 4,6 01:00 2022-01-24 SE- AAXX 24001 02605 27463 82804 10046 20045 333 60005 88/12 90710 91108= 02607 Ängelholm|Barkåkra/AFB|F- 4,8 01:00 2022-01-24 SE- ESDB AAXX 24001 02607 45362 /2803 10048 20040 30282 40306 52005 333 88/07= 02611 Helsingborg|Västra Ramlös 5,3 01:00 2022-01-24 SE- AAXX 24001 02611 27/63 /2802 10053 20045 30255 40310 53006 333 60005 90710 91107= 02615 Falsterbo|Falsterbovång/F 4,9 01:00 2022-01-24 SE- AAXX 24001 02615 27260 83005 10049 20047 30315 40319 52005 333 60005 88/04 90710 91107= 02616 Falsterbo|Falsterbovång/L 13,9 (08:00 2021-06-01) SE- AAXX 01060 02616 01/57 73504 10139 20126 30191 40197 53003 71022 85032 333 10171 20129 30/// 70000 85364 87258=
02618 Torup|Torpup|Tranabo/Torp 4,5 01:00 2022-01-24 SE-N AAXX 24001 02618 27/46 /2704 10045 20043 30123 40291 52001 78186 333 69915 90710 91113= 02622 Ljungby|Hovdinge 3,7 01:00 2022-01-24 SE-G AAXX 24001 02622 27120 82602 10037 20035 71011 333 60005 88/02 90710 91105= 02623 Hörby|Slagtofta 4,4 01:00 2022-01-24 SE- AAXX 24001 02623 27124 82803 10044 20042 71032 333 60005 88/02 90710 91106= 02625 Skillinge|Gislövhammar/Au 4,9 01:00 2022-01-24 SE- AAXX 24001 02625 27348 82805 10049 20048 30300 40306 50001 72032 333 60005 88/08 90710 91106= 02628 Hano|Hanö/Automated 4,5 01:00 2022-01-24 SE- AAXX 24001 02628 27358 82708 10045 20042 71032 333 60005 88/06 90710 91111=
02629 Hästveda|Hästveda 4,2 01:00 2022-01-24 SE- AAXX 24001 02629 07249 82804 10042 20042 30171 40299 53004 60001 71011 333 60005 88/04 91006 90710 91109= 02632 Utklippan|Stenshamn 4,7 01:00 2022-01-24 SE- AAXX 24001 02632 46/// /2506 10047 20046 333 90710 91109= 02635 Malmö|Husie/Automated 5,4 01:00 2022-01-24 SE- AAXX 24001 02635 27/56 /3003 10054 20047 7101/ 333 60005 90710 91105= 02636 Malmö|Beddinge Läge/Sturu 5,2 01:00 2022-01-24 SE- MMX ESMS AAXX 24001 02636 47156 /2904 10052 20049 30225 40315 52005 710// 333 88/03= 02644 Ölandssödraudde|Ottenby/A 3,3 01:00 2022-01-24 SE- AAXX 24001 02644 27235 82305 10033 20031 30282 40286 54000 71032 333 60005 87/05 88/13 90710 91107=
02648 Växjö|Telestad 3,7 01:00 2022-01-24 SE-G AAXX 24001 02648 27/60 /2705 10037 20035 30032 40282 52004 71032 333 60005 90710 91108= 02661 Kosta|Lövsjö 4,1 01:00 2022-01-24 SE-G AAXX 24001 02661 07260 82802 10041 20040 39992 40278 52001 60001 7//31 333 60005 88/04 91004 90710 91106= 02664 Ronneby|Häggatorp/AFB 5,1 01:00 2022-01-24 SE-K RNB ESDF AAXX 24001 02664 05364 82603 10051 20051 30220 40293 53003 60001 333 60005 88/07 91005 90710 91105= 02667 Söderstjerna|Drottningskä 4,1 01:00 2022-01-24 SE- AAXX 24001 02667 07250 82506 10041 20040 30288 40291 53002 60001 71011 333 60005 83/05 86/09 88/11 91008 90710 91109= 02670 Kalmar|Elverslösa/Airport 3,7 01:00 2022-01-24 SE-H ESDC AAXX 24001 02670 46477 /2002 10037 20037 30269 40276 50002 333 88/13=
02679 Hoburg|Burge/Hoburg A 2,8 01:00 2022-01-24 SE-I AAXX 24001 02679 27105 92307 10028 20026 30227 40273 57004 73332 333 60005 89/02 90710 91109= (191 rader visades) Du kan lägga till id-beteckningen först på raden i valfri Lista 1 - 5 [top] ↕°C [1] [2] [3] [4] [5] ??? LISTOR 00-nr NOT MEDD MT METAR SYNOP SE SE-AB SE-C SE-D SE-E SE-F SE-G SE-H SE-I SE-K SE-M SE-N SE-O SE-P SE-T SE-U SE-W SE-X SE-Y SE-Z SE-AC SE-BD rådata flyg flyg_osd